METAR Data
IDs: Format: Raw Decoded Include TAF

Data at: 1452 UTC 15 Oct 2018

KSUA 151447Z 11007KT 7SM SCT025 SCT029 29/23 A3012

KSUA 151122Z 1512/1612 11006KT P6SM VCSH SCT020
  FM151500 11011KT P6SM SCT030
  FM160200 11007KT P6SM FEW030